• Join FlightAware (Why Join?)
  • Login
  • US Flag 
09:13AM EST


 

Airport Tracker/Info


-or-


 

Live Flight TrackerFlight Track Log ✈ FIN505 ✈ 28-Feb-2012 ✈ EFHK / HEL - EFKU / KUO

Flight Track Log - Related Links

Times and Time Zones

All times are in EST time to prevent confusion due to time zone crossing. See the FIN505 flight status page for this flight to view local times or setup timezone preferences in your user account.

Time Position Orientation Groundspeed Altitude Reporting Facility
EST Latitude Longitude Course Direction KTS MPH feet Rate Location/Type
06:49AM 60.3912 25.0342 25° Northeast  Level Estimated
06:50AM 60.4817 25.1215 25° Northeast  Level Estimated
06:51AM 60.5722 25.2092 26° Northeast  Level Estimated
06:52AM 60.6626 25.2974 26° Northeast  Level Estimated
06:53AM 60.7529 25.3862 26° Northeast  Level Estimated
06:54AM 60.8433 25.4754 26° Northeast  Level Estimated
06:55AM 60.9335 25.5651 26° Northeast  Level Estimated
06:56AM 61.0237 25.6553 26° Northeast  Level Estimated
06:57AM 61.1138 25.7461 26° Northeast  Level Estimated
06:58AM 61.2038 25.8374 26° Northeast  Level Estimated
06:59AM 61.2938 25.9292 26° Northeast  Level Estimated
07:00AM 61.3838 26.0215 26° Northeast  Level Estimated
07:01AM 61.4736 26.1143 26° Northeast  Level Estimated
07:02AM 61.5634 26.2077 26° Northeast  Level Estimated
07:03AM 61.6532 26.3017 27° Northeast  Level Estimated
07:04AM 61.7428 26.3962 27° Northeast  Level Estimated
07:05AM 61.8324 26.4912 27° Northeast  Level Estimated
07:06AM 61.9220 26.5868 27° Northeast  Level Estimated
07:07AM 62.0115 26.6829 27° Northeast  Level Estimated
07:08AM 62.1009 26.7796 27° Northeast  Level Estimated
07:09AM 62.1902 26.8769 27° Northeast  Level Estimated
07:10AM 62.2795 26.9748 27° Northeast  Level Estimated
07:11AM 62.3687 27.0732 27° Northeast  Level Estimated
07:12AM 62.4578 27.1723 27° Northeast  Level Estimated
07:13AM 62.5469 27.2719 27° Northeast  Level Estimated
07:14AM 62.6359 27.3721 27° Northeast  Level Estimated
07:15AM 62.7248 27.4730 28° Northeast  Level Estimated
07:16AM 62.8136 27.5744 28° Northeast  Level Estimated
07:17AM 62.9024 27.6764 28° Northeast  Level Estimated
07:18AM 62.9911 27.7791 28° Northeast  Level Estimated
07:19AM 63.0797 27.8824 208° Southwest  Level Estimated
07:20AM 62.9911 27.7791 28° Northeast  Level Estimated
07:21AM 63.0797 27.8824 208° Southwest  Level Estimated
07:22AM 62.9911 27.7791 28° Northeast  Level Estimated
07:23AM 63.0797 27.8824 208° Southwest  Level Estimated
07:24AM 62.9911 27.7791 28° Northeast  Level Estimated
07:25AM 63.0797 27.8824 208° Southwest  Level Estimated
07:26AM 62.9911 27.7791 28° Northeast  Level Estimated
07:27AM 63.0797 27.8824 208° Southwest  Level Estimated
07:28AM 62.9911 27.7791 28° Northeast  Level Estimated
07:29AM 63.0797 27.8824 208° Southwest  Level Estimated
07:30AM 62.9911 27.7791 28° Northeast  Level Estimated
07:31AM 63.0797 27.8824 28° Northeast  Level Estimated